sensor_id;sensor_type;location;lat;lon;timestamp;P1;durP1;ratioP1;P2;durP2;ratioP2
29516;SDS011;40993;50.594;8.664;2023-07-13T00:00:24;7.72;;;3.15;;
29516;SDS011;40993;50.594;8.664;2023-07-13T00:02:51;7.65;;;3.10;;
29516;SDS011;40993;50.594;8.664;2023-07-13T00:05:20;6.43;;;2.90;;
29516;SDS011;40993;50.594;8.664;2023-07-13T00:07:47;6.60;;;2.95;;
29516;SDS011;40993;50.594;8.664;2023-07-13T00:10:16;5.72;;;2.85;;
29516;SDS011;40993;50.594;8.664;2023-07-13T00:12:44;6.97;;;3.33;;
29516;SDS011;40993;50.594;8.664;2023-07-13T00:15:13;5.53;;;3.00;;
29516;SDS011;40993;50.594;8.664;2023-07-13T00:17:43;8.20;;;2.58;;
29516;SDS011;40993;50.594;8.664;2023-07-13T00:20:11;6.38;;;3.00;;
29516;SDS011;40993;50.594;8.664;2023-07-13T00:22:39;7.00;;;2.83;;
29516;SDS011;40993;50.594;8.664;2023-07-13T00:25:08;6.47;;;2.92;;
29516;SDS011;40993;50.594;8.664;2023-07-13T00:27:38;6.75;;;3.03;;
29516;SDS011;40993;50.594;8.664;2023-07-13T00:30:06;7.45;;;3.20;;
29516;SDS011;40993;50.594;8.664;2023-07-13T00:32:35;10.23;;;3.60;;
29516;SDS011;40993;50.594;8.664;2023-07-13T00:35:03;7.40;;;3.33;;
29516;SDS011;40993;50.594;8.664;2023-07-13T00:37:31;6.90;;;2.90;;
29516;SDS011;40993;50.594;8.664;2023-07-13T00:39:58;8.10;;;3.20;;
29516;SDS011;40993;50.594;8.664;2023-07-13T00:42:26;8.73;;;3.42;;
29516;SDS011;40993;50.594;8.664;2023-07-13T00:45:02;6.97;;;3.40;;
29516;SDS011;40993;50.594;8.664;2023-07-13T00:47:31;11.70;;;3.17;;
29516;SDS011;40993;50.594;8.664;2023-07-13T00:50:01;8.70;;;3.40;;
29516;SDS011;40993;50.594;8.664;2023-07-13T00:52:34;7.70;;;3.60;;
29516;SDS011;40993;50.594;8.664;2023-07-13T00:55:02;8.38;;;3.55;;
29516;SDS011;40993;50.594;8.664;2023-07-13T00:57:30;7.05;;;3.42;;
29516;SDS011;40993;50.594;8.664;2023-07-13T01:00:00;9.35;;;3.58;;
29516;SDS011;40993;50.594;8.664;2023-07-13T01:02:35;6.88;;;3.47;;
29516;SDS011;40993;50.594;8.664;2023-07-13T01:05:07;6.05;;;3.38;;
29516;SDS011;40993;50.594;8.664;2023-07-13T01:07:36;12.57;;;3.60;;
29516;SDS011;40993;50.594;8.664;2023-07-13T01:10:04;7.70;;;3.55;;
29516;SDS011;40993;50.594;8.664;2023-07-13T01:12:33;7.47;;;3.70;;
29516;SDS011;40993;50.594;8.664;2023-07-13T01:15:01;9.27;;;3.50;;
29516;SDS011;40993;50.594;8.664;2023-07-13T01:17:30;13.30;;;3.67;;
29516;SDS011;40993;50.594;8.664;2023-07-13T01:19:59;5.88;;;3.25;;
29516;SDS011;40993;50.594;8.664;2023-07-13T01:22:28;8.32;;;3.60;;
29516;SDS011;40993;50.594;8.664;2023-07-13T01:24:57;8.13;;;3.55;;
29516;SDS011;40993;50.594;8.664;2023-07-13T01:27:25;6.57;;;3.50;;
29516;SDS011;40993;50.594;8.664;2023-07-13T01:29:54;7.70;;;4.20;;
29516;SDS011;40993;50.594;8.664;2023-07-13T01:32:28;7.88;;;4.05;;
29516;SDS011;40993;50.594;8.664;2023-07-13T01:34:57;10.00;;;4.20;;
29516;SDS011;40993;50.594;8.664;2023-07-13T01:37:26;9.25;;;4.10;;
29516;SDS011;40993;50.594;8.664;2023-07-13T01:39:55;6.90;;;3.72;;
29516;SDS011;40993;50.594;8.664;2023-07-13T01:42:22;9.05;;;4.32;;
29516;SDS011;40993;50.594;8.664;2023-07-13T01:44:50;11.07;;;4.40;;
29516;SDS011;40993;50.594;8.664;2023-07-13T01:47:17;9.18;;;4.15;;
29516;SDS011;40993;50.594;8.664;2023-07-13T01:49:45;9.57;;;3.97;;
29516;SDS011;40993;50.594;8.664;2023-07-13T01:52:13;7.25;;;4.05;;
29516;SDS011;40993;50.594;8.664;2023-07-13T01:54:41;7.18;;;3.80;;
29516;SDS011;40993;50.594;8.664;2023-07-13T01:57:10;8.45;;;4.20;;
29516;SDS011;40993;50.594;8.664;2023-07-13T01:59:37;10.23;;;4.28;;
29516;SDS011;40993;50.594;8.664;2023-07-13T02:02:05;9.80;;;4.38;;
29516;SDS011;40993;50.594;8.664;2023-07-13T02:04:33;6.80;;;4.00;;
29516;SDS011;40993;50.594;8.664;2023-07-13T02:07:01;9.63;;;4.30;;
29516;SDS011;40993;50.594;8.664;2023-07-13T02:09:29;10.18;;;4.13;;
29516;SDS011;40993;50.594;8.664;2023-07-13T02:11:57;10.98;;;4.32;;
29516;SDS011;40993;50.594;8.664;2023-07-13T02:14:31;10.02;;;4.30;;
29516;SDS011;40993;50.594;8.664;2023-07-13T02:16:59;8.07;;;4.07;;
29516;SDS011;40993;50.594;8.664;2023-07-13T02:19:26;8.30;;;4.13;;
29516;SDS011;40993;50.594;8.664;2023-07-13T02:21:54;11.32;;;4.75;;
29516;SDS011;40993;50.594;8.664;2023-07-13T02:24:21;8.00;;;4.13;;
29516;SDS011;40993;50.594;8.664;2023-07-13T02:26:49;13.48;;;4.70;;
29516;SDS011;40993;50.594;8.664;2023-07-13T02:29:17;8.55;;;4.30;;
29516;SDS011;40993;50.594;8.664;2023-07-13T02:31:45;7.00;;;4.15;;
29516;SDS011;40993;50.594;8.664;2023-07-13T02:34:14;11.73;;;5.07;;
29516;SDS011;40993;50.594;8.664;2023-07-13T02:36:41;8.95;;;4.30;;
29516;SDS011;40993;50.594;8.664;2023-07-13T02:39:09;10.85;;;4.32;;
29516;SDS011;40993;50.594;8.664;2023-07-13T02:41:39;7.10;;;4.05;;
29516;SDS011;40993;50.594;8.664;2023-07-13T02:44:06;11.50;;;4.57;;
29516;SDS011;40993;50.594;8.664;2023-07-13T02:46:35;8.80;;;4.40;;
29516;SDS011;40993;50.594;8.664;2023-07-13T02:49:05;7.32;;;4.20;;
29516;SDS011;40993;50.594;8.664;2023-07-13T02:51:32;8.52;;;4.30;;
29516;SDS011;40993;50.594;8.664;2023-07-13T02:54:00;6.88;;;4.15;;
29516;SDS011;40993;50.594;8.664;2023-07-13T02:56:29;8.68;;;4.60;;
29516;SDS011;40993;50.594;8.664;2023-07-13T02:58:58;11.98;;;4.53;;
29516;SDS011;40993;50.594;8.664;2023-07-13T03:01:25;11.63;;;4.70;;
29516;SDS011;40993;50.594;8.664;2023-07-13T03:03:53;7.03;;;4.20;;
29516;SDS011;40993;50.594;8.664;2023-07-13T03:06:23;7.75;;;4.70;;
29516;SDS011;40993;50.594;8.664;2023-07-13T03:08:52;8.45;;;4.55;;
29516;SDS011;40993;50.594;8.664;2023-07-13T03:11:22;9.13;;;4.93;;
29516;SDS011;40993;50.594;8.664;2023-07-13T03:16:24;10.07;;;4.30;;
29516;SDS011;40993;50.594;8.664;2023-07-13T03:18:52;9.38;;;4.82;;
29516;SDS011;40993;50.594;8.664;2023-07-13T03:21:21;12.05;;;4.53;;
29516;SDS011;40993;50.594;8.664;2023-07-13T03:23:51;9.77;;;4.30;;
29516;SDS011;40993;50.594;8.664;2023-07-13T03:26:19;8.00;;;4.90;;
29516;SDS011;40993;50.594;8.664;2023-07-13T03:28:47;10.55;;;4.80;;
29516;SDS011;40993;50.594;8.664;2023-07-13T03:31:20;5.97;;;3.92;;
29516;SDS011;40993;50.594;8.664;2023-07-13T03:33:49;9.75;;;4.28;;
29516;SDS011;40993;50.594;8.664;2023-07-13T03:36:18;6.45;;;3.90;;
29516;SDS011;40993;50.594;8.664;2023-07-13T03:38:48;7.85;;;3.80;;
29516;SDS011;40993;50.594;8.664;2023-07-13T03:41:23;8.35;;;4.25;;
29516;SDS011;40993;50.594;8.664;2023-07-13T03:43:52;6.68;;;3.80;;
29516;SDS011;40993;50.594;8.664;2023-07-13T03:46:23;8.27;;;4.25;;
29516;SDS011;40993;50.594;8.664;2023-07-13T03:48:50;10.85;;;4.40;;
29516;SDS011;40993;50.594;8.664;2023-07-13T03:51:18;9.05;;;3.72;;
29516;SDS011;40993;50.594;8.664;2023-07-13T03:53:47;10.25;;;4.40;;
29516;SDS011;40993;50.594;8.664;2023-07-13T03:56:19;11.45;;;4.40;;
29516;SDS011;40993;50.594;8.664;2023-07-13T03:58:47;6.32;;;4.32;;
29516;SDS011;40993;50.594;8.664;2023-07-13T04:01:19;6.63;;;4.03;;
29516;SDS011;40993;50.594;8.664;2023-07-13T04:03:48;8.73;;;4.05;;
29516;SDS011;40993;50.594;8.664;2023-07-13T04:06:18;9.90;;;4.45;;
29516;SDS011;40993;50.594;8.664;2023-07-13T04:08:48;9.68;;;4.22;;
29516;SDS011;40993;50.594;8.664;2023-07-13T04:11:18;5.60;;;3.90;;
29516;SDS011;40993;50.594;8.664;2023-07-13T04:13:46;6.20;;;3.85;;
29516;SDS011;40993;50.594;8.664;2023-07-13T04:16:14;9.35;;;4.05;;
29516;SDS011;40993;50.594;8.664;2023-07-13T04:18:44;8.38;;;3.85;;
29516;SDS011;40993;50.594;8.664;2023-07-13T04:21:12;8.55;;;4.22;;
29516;SDS011;40993;50.594;8.664;2023-07-13T04:23:39;10.07;;;4.43;;
29516;SDS011;40993;50.594;8.664;2023-07-13T04:26:07;9.02;;;4.32;;
29516;SDS011;40993;50.594;8.664;2023-07-13T04:28:37;12.95;;;4.38;;
29516;SDS011;40993;50.594;8.664;2023-07-13T04:31:05;12.00;;;4.40;;
29516;SDS011;40993;50.594;8.664;2023-07-13T04:33:33;11.10;;;4.20;;
29516;SDS011;40993;50.594;8.664;2023-07-13T04:36:00;9.15;;;4.10;;
29516;SDS011;40993;50.594;8.664;2023-07-13T04:38:29;8.40;;;4.18;;
29516;SDS011;40993;50.594;8.664;2023-07-13T04:40:59;10.20;;;4.28;;
29516;SDS011;40993;50.594;8.664;2023-07-13T04:43:28;6.30;;;3.72;;
29516;SDS011;40993;50.594;8.664;2023-07-13T04:46:04;7.88;;;3.63;;
29516;SDS011;40993;50.594;8.664;2023-07-13T04:48:33;9.15;;;4.15;;
29516;SDS011;40993;50.594;8.664;2023-07-13T04:51:01;7.97;;;3.83;;
29516;SDS011;40993;50.594;8.664;2023-07-13T04:53:30;6.95;;;3.67;;
29516;SDS011;40993;50.594;8.664;2023-07-13T04:55:58;8.43;;;3.92;;
29516;SDS011;40993;50.594;8.664;2023-07-13T04:58:26;9.95;;;4.00;;
29516;SDS011;40993;50.594;8.664;2023-07-13T05:00:53;9.10;;;4.38;;
29516;SDS011;40993;50.594;8.664;2023-07-13T05:03:28;7.45;;;3.97;;
29516;SDS011;40993;50.594;8.664;2023-07-13T05:05:57;9.38;;;4.38;;
29516;SDS011;40993;50.594;8.664;2023-07-13T05:08:25;7.80;;;4.20;;
29516;SDS011;40993;50.594;8.664;2023-07-13T05:10:53;14.32;;;4.20;;
29516;SDS011;40993;50.594;8.664;2023-07-13T05:13:21;9.52;;;4.43;;
29516;SDS011;40993;50.594;8.664;2023-07-13T05:15:57;10.43;;;4.55;;
29516;SDS011;40993;50.594;8.664;2023-07-13T05:18:26;8.77;;;3.67;;
29516;SDS011;40993;50.594;8.664;2023-07-13T05:20:57;6.95;;;3.60;;
29516;SDS011;40993;50.594;8.664;2023-07-13T05:23:26;7.88;;;3.83;;
29516;SDS011;40993;50.594;8.664;2023-07-13T05:25:55;12.43;;;3.88;;
29516;SDS011;40993;50.594;8.664;2023-07-13T05:28:23;6.70;;;3.67;;
29516;SDS011;40993;50.594;8.664;2023-07-13T05:30:51;7.22;;;3.40;;
29516;SDS011;40993;50.594;8.664;2023-07-13T05:33:20;4.80;;;3.35;;
29516;SDS011;40993;50.594;8.664;2023-07-13T05:35:47;8.35;;;3.50;;
29516;SDS011;40993;50.594;8.664;2023-07-13T05:38:16;7.50;;;3.38;;
29516;SDS011;40993;50.594;8.664;2023-07-13T05:40:44;7.90;;;3.30;;
29516;SDS011;40993;50.594;8.664;2023-07-13T05:43:12;8.07;;;3.60;;
29516;SDS011;40993;50.594;8.664;2023-07-13T05:45:40;6.53;;;3.10;;
29516;SDS011;40993;50.594;8.664;2023-07-13T05:48:07;7.80;;;3.30;;
29516;SDS011;40993;50.594;8.664;2023-07-13T05:50:35;8.68;;;3.40;;
29516;SDS011;40993;50.594;8.664;2023-07-13T05:53:03;7.25;;;3.20;;
29516;SDS011;40993;50.594;8.664;2023-07-13T05:55:32;8.30;;;2.90;;
29516;SDS011;40993;50.594;8.664;2023-07-13T05:58:00;7.07;;;2.50;;
29516;SDS011;40993;50.594;8.664;2023-07-13T06:00:28;8.60;;;2.70;;
29516;SDS011;40993;50.594;8.664;2023-07-13T06:02:56;5.15;;;2.42;;
29516;SDS011;40993;50.594;8.664;2023-07-13T06:05:25;8.40;;;2.40;;
29516;SDS011;40993;50.594;8.664;2023-07-13T06:07:53;5.25;;;2.55;;
29516;SDS011;40993;50.594;8.664;2023-07-13T06:10:20;7.75;;;2.33;;
29516;SDS011;40993;50.594;8.664;2023-07-13T06:12:49;5.07;;;2.50;;
29516;SDS011;40993;50.594;8.664;2023-07-13T06:15:17;5.55;;;2.10;;
29516;SDS011;40993;50.594;8.664;2023-07-13T06:17:45;6.25;;;2.42;;
29516;SDS011;40993;50.594;8.664;2023-07-13T06:20:12;9.45;;;2.30;;
29516;SDS011;40993;50.594;8.664;2023-07-13T06:22:40;5.22;;;2.28;;
29516;SDS011;40993;50.594;8.664;2023-07-13T06:25:09;4.82;;;2.17;;
29516;SDS011;40993;50.594;8.664;2023-07-13T06:27:36;7.68;;;2.15;;
29516;SDS011;40993;50.594;8.664;2023-07-13T06:30:05;4.93;;;1.95;;
29516;SDS011;40993;50.594;8.664;2023-07-13T06:32:34;4.63;;;1.92;;
29516;SDS011;40993;50.594;8.664;2023-07-13T06:35:05;5.07;;;2.22;;
29516;SDS011;40993;50.594;8.664;2023-07-13T06:37:33;8.73;;;2.30;;
29516;SDS011;40993;50.594;8.664;2023-07-13T06:40:00;5.22;;;2.05;;
29516;SDS011;40993;50.594;8.664;2023-07-13T06:42:28;6.97;;;2.47;;
29516;SDS011;40993;50.594;8.664;2023-07-13T06:44:55;5.32;;;2.08;;
29516;SDS011;40993;50.594;8.664;2023-07-13T06:47:24;7.43;;;2.17;;
29516;SDS011;40993;50.594;8.664;2023-07-13T06:49:52;4.47;;;1.88;;
29516;SDS011;40993;50.594;8.664;2023-07-13T06:52:20;4.30;;;1.65;;
29516;SDS011;40993;50.594;8.664;2023-07-13T06:54:47;5.22;;;2.20;;
29516;SDS011;40993;50.594;8.664;2023-07-13T06:57:15;3.72;;;1.70;;
29516;SDS011;40993;50.594;8.664;2023-07-13T06:59:42;6.30;;;1.88;;
29516;SDS011;40993;50.594;8.664;2023-07-13T07:02:10;4.78;;;1.90;;
29516;SDS011;40993;50.594;8.664;2023-07-13T07:04:39;5.93;;;1.90;;
29516;SDS011;40993;50.594;8.664;2023-07-13T07:07:07;4.53;;;1.88;;
29516;SDS011;40993;50.594;8.664;2023-07-13T07:09:34;7.25;;;1.95;;
29516;SDS011;40993;50.594;8.664;2023-07-13T07:12:02;4.90;;;1.85;;
29516;SDS011;40993;50.594;8.664;2023-07-13T07:14:31;7.90;;;1.83;;
29516;SDS011;40993;50.594;8.664;2023-07-13T07:17:00;4.18;;;1.92;;
29516;SDS011;40993;50.594;8.664;2023-07-13T07:19:29;7.65;;;2.10;;
29516;SDS011;40993;50.594;8.664;2023-07-13T07:21:58;5.68;;;2.00;;
29516;SDS011;40993;50.594;8.664;2023-07-13T07:24:26;8.20;;;2.20;;
29516;SDS011;40993;50.594;8.664;2023-07-13T07:26:53;5.15;;;2.03;;
29516;SDS011;40993;50.594;8.664;2023-07-13T07:29:24;7.45;;;1.60;;
29516;SDS011;40993;50.594;8.664;2023-07-13T07:31:56;5.60;;;1.80;;
29516;SDS011;40993;50.594;8.664;2023-07-13T07:34:43;8.70;;;2.08;;
29516;SDS011;40993;50.594;8.664;2023-07-13T07:37:12;4.28;;;1.65;;
29516;SDS011;40993;50.594;8.664;2023-07-13T07:39:43;4.28;;;1.60;;
29516;SDS011;40993;50.594;8.664;2023-07-13T07:42:31;4.35;;;1.65;;
29516;SDS011;40993;50.594;8.664;2023-07-13T07:44:59;5.43;;;1.73;;
29516;SDS011;40993;50.594;8.664;2023-07-13T07:47:28;3.67;;;1.63;;
29516;SDS011;40993;50.594;8.664;2023-07-13T07:49:55;2.88;;;1.55;;
29516;SDS011;40993;50.594;8.664;2023-07-13T07:52:24;5.30;;;1.70;;
29516;SDS011;40993;50.594;8.664;2023-07-13T07:54:52;4.03;;;1.40;;
29516;SDS011;40993;50.594;8.664;2023-07-13T07:57:22;6.00;;;1.73;;
29516;SDS011;40993;50.594;8.664;2023-07-13T07:59:53;4.30;;;1.88;;
29516;SDS011;40993;50.594;8.664;2023-07-13T08:02:24;5.32;;;1.63;;
29516;SDS011;40993;50.594;8.664;2023-07-13T08:04:54;3.83;;;1.52;;
29516;SDS011;40993;50.594;8.664;2023-07-13T08:07:26;6.93;;;1.70;;
29516;SDS011;40993;50.594;8.664;2023-07-13T08:09:54;6.53;;;1.88;;
29516;SDS011;40993;50.594;8.664;2023-07-13T08:12:22;4.35;;;1.85;;
29516;SDS011;40993;50.594;8.664;2023-07-13T08:14:52;4.80;;;1.50;;
29516;SDS011;40993;50.594;8.664;2023-07-13T08:17:23;8.40;;;1.65;;
29516;SDS011;40993;50.594;8.664;2023-07-13T08:19:52;2.90;;;1.60;;
29516;SDS011;40993;50.594;8.664;2023-07-13T08:22:19;4.32;;;1.70;;
29516;SDS011;40993;50.594;8.664;2023-07-13T08:24:48;3.60;;;1.58;;
29516;SDS011;40993;50.594;8.664;2023-07-13T08:27:22;5.53;;;1.80;;
29516;SDS011;40993;50.594;8.664;2023-07-13T08:29:50;4.22;;;1.85;;
29516;SDS011;40993;50.594;8.664;2023-07-13T08:32:18;3.22;;;1.60;;
29516;SDS011;40993;50.594;8.664;2023-07-13T08:34:46;3.67;;;1.40;;
29516;SDS011;40993;50.594;8.664;2023-07-13T08:37:13;5.15;;;1.80;;
29516;SDS011;40993;50.594;8.664;2023-07-13T08:39:41;6.78;;;1.83;;
29516;SDS011;40993;50.594;8.664;2023-07-13T08:42:12;3.78;;;1.60;;
29516;SDS011;40993;50.594;8.664;2023-07-13T08:44:45;8.02;;;1.58;;
29516;SDS011;40993;50.594;8.664;2023-07-13T08:47:18;6.38;;;1.92;;
29516;SDS011;40993;50.594;8.664;2023-07-13T08:49:48;8.93;;;1.88;;
29516;SDS011;40993;50.594;8.664;2023-07-13T08:52:16;4.63;;;1.63;;
29516;SDS011;40993;50.594;8.664;2023-07-13T08:54:50;5.07;;;2.03;;
29516;SDS011;40993;50.594;8.664;2023-07-13T08:57:21;8.60;;;1.67;;
29516;SDS011;40993;50.594;8.664;2023-07-13T08:59:54;5.90;;;1.40;;
29516;SDS011;40993;50.594;8.664;2023-07-13T09:02:25;7.03;;;1.83;;
29516;SDS011;40993;50.594;8.664;2023-07-13T09:04:54;3.78;;;1.77;;
29516;SDS011;40993;50.594;8.664;2023-07-13T09:07:34;6.50;;;1.70;;
29516;SDS011;40993;50.594;8.664;2023-07-13T09:10:12;5.95;;;1.63;;
29516;SDS011;40993;50.594;8.664;2023-07-13T09:15:24;5.20;;;1.85;;
29516;SDS011;40993;50.594;8.664;2023-07-13T09:17:53;5.55;;;1.70;;
29516;SDS011;40993;50.594;8.664;2023-07-13T09:20:24;5.53;;;1.60;;
29516;SDS011;40993;50.594;8.664;2023-07-13T09:22:54;4.40;;;1.70;;
29516;SDS011;40993;50.594;8.664;2023-07-13T09:25:24;4.45;;;1.90;;
29516;SDS011;40993;50.594;8.664;2023-07-13T09:27:58;4.03;;;1.75;;
29516;SDS011;40993;50.594;8.664;2023-07-13T09:30:30;4.07;;;1.70;;
29516;SDS011;40993;50.594;8.664;2023-07-13T09:33:01;6.55;;;1.83;;
29516;SDS011;40993;50.594;8.664;2023-07-13T09:35:28;4.75;;;1.95;;
29516;SDS011;40993;50.594;8.664;2023-07-13T09:37:57;6.50;;;2.03;;
29516;SDS011;40993;50.594;8.664;2023-07-13T09:40:30;8.32;;;2.10;;
29516;SDS011;40993;50.594;8.664;2023-07-13T09:43:05;6.85;;;2.22;;
29516;SDS011;40993;50.594;8.664;2023-07-13T09:45:37;4.40;;;2.00;;
29516;SDS011;40993;50.594;8.664;2023-07-13T09:48:06;5.28;;;2.00;;
29516;SDS011;40993;50.594;8.664;2023-07-13T09:50:37;4.70;;;2.10;;
29516;SDS011;40993;50.594;8.664;2023-07-13T09:53:09;6.15;;;1.95;;
29516;SDS011;40993;50.594;8.664;2023-07-13T09:55:39;5.43;;;1.90;;
29516;SDS011;40993;50.594;8.664;2023-07-13T09:58:10;8.32;;;2.00;;
29516;SDS011;40993;50.594;8.664;2023-07-13T10:00:39;9.55;;;2.10;;
29516;SDS011;40993;50.594;8.664;2023-07-13T10:03:14;7.85;;;2.17;;
29516;SDS011;40993;50.594;8.664;2023-07-13T10:05:45;5.43;;;1.90;;
29516;SDS011;40993;50.594;8.664;2023-07-13T10:08:17;6.32;;;1.92;;
29516;SDS011;40993;50.594;8.664;2023-07-13T10:10:46;6.53;;;2.20;;
29516;SDS011;40993;50.594;8.664;2023-07-13T10:13:29;7.35;;;2.47;;
29516;SDS011;40993;50.594;8.664;2023-07-13T10:16:00;6.28;;;2.20;;
29516;SDS011;40993;50.594;8.664;2023-07-13T10:18:29;9.05;;;2.30;;
29516;SDS011;40993;50.594;8.664;2023-07-13T10:20:59;8.07;;;2.10;;
29516;SDS011;40993;50.594;8.664;2023-07-13T10:23:59;6.28;;;2.20;;
29516;SDS011;40993;50.594;8.664;2023-07-13T10:26:32;6.70;;;2.00;;
29516;SDS011;40993;50.594;8.664;2023-07-13T10:29:03;8.00;;;2.40;;
29516;SDS011;40993;50.594;8.664;2023-07-13T10:31:33;11.05;;;2.38;;
29516;SDS011;40993;50.594;8.664;2023-07-13T10:34:02;7.47;;;2.20;;
29516;SDS011;40993;50.594;8.664;2023-07-13T10:36:32;7.07;;;2.50;;
29516;SDS011;40993;50.594;8.664;2023-07-13T10:39:02;6.35;;;2.50;;
29516;SDS011;40993;50.594;8.664;2023-07-13T10:41:31;11.32;;;2.53;;
29516;SDS011;40993;50.594;8.664;2023-07-13T10:44:02;7.38;;;2.50;;
29516;SDS011;40993;50.594;8.664;2023-07-13T10:46:31;6.57;;;2.40;;
29516;SDS011;40993;50.594;8.664;2023-07-13T10:49:00;7.10;;;2.33;;
29516;SDS011;40993;50.594;8.664;2023-07-13T10:51:33;4.97;;;2.30;;
29516;SDS011;40993;50.594;8.664;2023-07-13T10:54:11;13.32;;;2.63;;
29516;SDS011;40993;50.594;8.664;2023-07-13T10:56:46;9.30;;;2.63;;
29516;SDS011;40993;50.594;8.664;2023-07-13T10:59:19;10.30;;;2.70;;
29516;SDS011;40993;50.594;8.664;2023-07-13T11:01:54;6.35;;;2.50;;
29516;SDS011;40993;50.594;8.664;2023-07-13T11:04:24;9.88;;;2.50;;
29516;SDS011;40993;50.594;8.664;2023-07-13T11:06:56;7.45;;;2.85;;
29516;SDS011;40993;50.594;8.664;2023-07-13T11:09:32;4.93;;;2.25;;
29516;SDS011;40993;50.594;8.664;2023-07-13T11:12:08;6.80;;;2.25;;
29516;SDS011;40993;50.594;8.664;2023-07-13T11:15:01;4.22;;;2.45;;
29516;SDS011;40993;50.594;8.664;2023-07-13T11:17:34;6.18;;;2.55;;
29516;SDS011;40993;50.594;8.664;2023-07-13T11:20:08;4.20;;;2.13;;
29516;SDS011;40993;50.594;8.664;2023-07-13T11:22:51;9.85;;;2.47;;
29516;SDS011;40993;50.594;8.664;2023-07-13T11:25:27;5.40;;;2.17;;
29516;SDS011;40993;50.594;8.664;2023-07-13T11:28:04;4.72;;;2.20;;
29516;SDS011;40993;50.594;8.664;2023-07-13T11:30:36;6.53;;;2.35;;
29516;SDS011;40993;50.594;8.664;2023-07-13T11:33:16;6.43;;;2.35;;
29516;SDS011;40993;50.594;8.664;2023-07-13T11:35:47;6.15;;;2.17;;
29516;SDS011;40993;50.594;8.664;2023-07-13T11:38:18;8.17;;;2.33;;
29516;SDS011;40993;50.594;8.664;2023-07-13T11:40:47;5.75;;;2.20;;
29516;SDS011;40993;50.594;8.664;2023-07-13T11:43:22;7.38;;;2.47;;
29516;SDS011;40993;50.594;8.664;2023-07-13T11:45:51;5.97;;;2.20;;
29516;SDS011;40993;50.594;8.664;2023-07-13T11:48:24;7.50;;;2.42;;
29516;SDS011;40993;50.594;8.664;2023-07-13T11:50:54;8.85;;;2.35;;
29516;SDS011;40993;50.594;8.664;2023-07-13T11:53:24;4.97;;;2.20;;
29516;SDS011;40993;50.594;8.664;2023-07-13T11:55:54;5.90;;;2.35;;
29516;SDS011;40993;50.594;8.664;2023-07-13T11:58:23;8.63;;;2.75;;
29516;SDS011;40993;50.594;8.664;2023-07-13T12:00:53;9.95;;;2.30;;
29516;SDS011;40993;50.594;8.664;2023-07-13T12:03:23;7.03;;;2.40;;
29516;SDS011;40993;50.594;8.664;2023-07-13T12:05:55;10.60;;;2.47;;
29516;SDS011;40993;50.594;8.664;2023-07-13T12:08:24;4.30;;;2.13;;
29516;SDS011;40993;50.594;8.664;2023-07-13T12:10:59;6.35;;;2.10;;
29516;SDS011;40993;50.594;8.664;2023-07-13T12:13:27;11.63;;;2.17;;
29516;SDS011;40993;50.594;8.664;2023-07-13T12:15:57;11.82;;;2.78;;
29516;SDS011;40993;50.594;8.664;2023-07-13T12:18:28;5.53;;;2.38;;
29516;SDS011;40993;50.594;8.664;2023-07-13T12:20:58;4.22;;;2.10;;
29516;SDS011;40993;50.594;8.664;2023-07-13T12:23:28;5.63;;;2.08;;
29516;SDS011;40993;50.594;8.664;2023-07-13T12:25:56;6.53;;;2.40;;
29516;SDS011;40993;50.594;8.664;2023-07-13T12:28:30;4.60;;;2.40;;
29516;SDS011;40993;50.594;8.664;2023-07-13T12:31:02;8.35;;;2.60;;
29516;SDS011;40993;50.594;8.664;2023-07-13T12:33:31;6.28;;;2.38;;
29516;SDS011;40993;50.594;8.664;2023-07-13T12:35:59;3.72;;;2.03;;
29516;SDS011;40993;50.594;8.664;2023-07-13T12:38:29;4.18;;;2.10;;
29516;SDS011;40993;50.594;8.664;2023-07-13T12:40:57;8.93;;;2.10;;
29516;SDS011;40993;50.594;8.664;2023-07-13T12:43:25;4.18;;;2.22;;
29516;SDS011;40993;50.594;8.664;2023-07-13T12:45:57;4.63;;;2.13;;
29516;SDS011;40993;50.594;8.664;2023-07-13T12:48:27;5.78;;;2.20;;
29516;SDS011;40993;50.594;8.664;2023-07-13T12:51:13;5.22;;;2.40;;
29516;SDS011;40993;50.594;8.664;2023-07-13T12:53:41;6.65;;;2.20;;
29516;SDS011;40993;50.594;8.664;2023-07-13T12:56:14;6.07;;;2.05;;
29516;SDS011;40993;50.594;8.664;2023-07-13T12:58:45;4.68;;;2.10;;
29516;SDS011;40993;50.594;8.664;2023-07-13T13:01:21;5.65;;;2.00;;
29516;SDS011;40993;50.594;8.664;2023-07-13T13:03:51;6.63;;;2.00;;
29516;SDS011;40993;50.594;8.664;2023-07-13T13:06:22;5.47;;;2.08;;
29516;SDS011;40993;50.594;8.664;2023-07-13T13:08:52;6.28;;;2.15;;
29516;SDS011;40993;50.594;8.664;2023-07-13T13:11:22;5.72;;;2.03;;
29516;SDS011;40993;50.594;8.664;2023-07-13T13:13:50;7.43;;;2.10;;
29516;SDS011;40993;50.594;8.664;2023-07-13T13:16:19;4.18;;;1.92;;
29516;SDS011;40993;50.594;8.664;2023-07-13T13:19:01;8.93;;;1.92;;
29516;SDS011;40993;50.594;8.664;2023-07-13T13:21:39;7.05;;;2.10;;
29516;SDS011;40993;50.594;8.664;2023-07-13T13:24:10;5.93;;;2.20;;
29516;SDS011;40993;50.594;8.664;2023-07-13T13:26:38;5.82;;;2.22;;
29516;SDS011;40993;50.594;8.664;2023-07-13T13:29:09;8.07;;;2.30;;
29516;SDS011;40993;50.594;8.664;2023-07-13T13:31:40;7.65;;;1.90;;
29516;SDS011;40993;50.594;8.664;2023-07-13T13:34:11;3.03;;;1.67;;
29516;SDS011;40993;50.594;8.664;2023-07-13T13:36:40;4.20;;;1.75;;
29516;SDS011;40993;50.594;8.664;2023-07-13T13:39:15;6.75;;;1.80;;
29516;SDS011;40993;50.594;8.664;2023-07-13T13:41:47;5.63;;;1.80;;
29516;SDS011;40993;50.594;8.664;2023-07-13T13:44:15;6.85;;;2.03;;
29516;SDS011;40993;50.594;8.664;2023-07-13T13:46:44;7.32;;;1.80;;
29516;SDS011;40993;50.594;8.664;2023-07-13T13:49:15;5.63;;;1.95;;
29516;SDS011;40993;50.594;8.664;2023-07-13T13:51:44;5.75;;;1.80;;
29516;SDS011;40993;50.594;8.664;2023-07-13T13:54:13;6.25;;;2.13;;
29516;SDS011;40993;50.594;8.664;2023-07-13T13:56:42;9.25;;;2.30;;
29516;SDS011;40993;50.594;8.664;2023-07-13T13:59:10;4.78;;;1.98;;
29516;SDS011;40993;50.594;8.664;2023-07-13T14:01:38;5.32;;;1.90;;
29516;SDS011;40993;50.594;8.664;2023-07-13T14:04:06;5.65;;;1.70;;
29516;SDS011;40993;50.594;8.664;2023-07-13T14:06:36;6.18;;;1.85;;
29516;SDS011;40993;50.594;8.664;2023-07-13T14:09:08;9.95;;;2.00;;
29516;SDS011;40993;50.594;8.664;2023-07-13T14:11:36;8.75;;;2.00;;
29516;SDS011;40993;50.594;8.664;2023-07-13T14:14:04;3.45;;;1.58;;
29516;SDS011;40993;50.594;8.664;2023-07-13T14:16:32;7.15;;;1.70;;
29516;SDS011;40993;50.594;8.664;2023-07-13T14:19:00;3.70;;;1.60;;
29516;SDS011;40993;50.594;8.664;2023-07-13T14:21:28;12.35;;;1.77;;
29516;SDS011;40993;50.594;8.664;2023-07-13T14:23:57;7.85;;;1.67;;
29516;SDS011;40993;50.594;8.664;2023-07-13T14:26:25;5.50;;;1.70;;
29516;SDS011;40993;50.594;8.664;2023-07-13T14:28:54;8.10;;;2.08;;
29516;SDS011;40993;50.594;8.664;2023-07-13T14:31:24;6.68;;;1.73;;
29516;SDS011;40993;50.594;8.664;2023-07-13T14:33:56;6.13;;;2.03;;
29516;SDS011;40993;50.594;8.664;2023-07-13T14:36:26;4.55;;;1.88;;
29516;SDS011;40993;50.594;8.664;2023-07-13T14:38:55;4.93;;;1.67;;
29516;SDS011;40993;50.594;8.664;2023-07-13T14:41:24;5.97;;;1.90;;
29516;SDS011;40993;50.594;8.664;2023-07-13T14:43:53;5.93;;;2.03;;
29516;SDS011;40993;50.594;8.664;2023-07-13T14:46:24;7.75;;;1.88;;
29516;SDS011;40993;50.594;8.664;2023-07-13T14:48:58;5.95;;;1.75;;
29516;SDS011;40993;50.594;8.664;2023-07-13T14:51:28;6.90;;;1.80;;
29516;SDS011;40993;50.594;8.664;2023-07-13T14:53:55;2.67;;;1.42;;
29516;SDS011;40993;50.594;8.664;2023-07-13T14:56:25;5.28;;;1.85;;
29516;SDS011;40993;50.594;8.664;2023-07-13T14:58:52;7.05;;;1.60;;
29516;SDS011;40993;50.594;8.664;2023-07-13T15:01:20;15.32;;;2.08;;
29516;SDS011;40993;50.594;8.664;2023-07-13T15:03:49;7.97;;;1.50;;
29516;SDS011;40993;50.594;8.664;2023-07-13T15:06:18;5.75;;;1.92;;